Tiempo atmosférico en la estación meteorológica de Bailo, Huesca (722 m.)



Fecha
DESCASC
Temp. máxima en grados centígrados (hora)
DESCASC
Temp. mínima en grados centígrados (hora)
DESCASC
Temp. media en grados centígrados
DESCASC
Racha de viento máxima en m/sg (hora)
DESCASC
Velocidad máxima media en intervalos de 10 minutos(hora)
DESCASC
Precipitaciones diarias en mm
DESCASC
Precipitaciones de 00:00 a 06:00 en mm
DESCASC
Precipitaciones de 06:00 a 12:00 en mm
DESCASC
Precipitaciones de 12:00 a 18:00 en mm
DESCASC
Precipitaciones de 18:00 a 24:00 en mm
DESCASC
19-04-2018 21 (15:20) 11.6 (07:10) 16.3 12.78 (17:20) 8.61 (17:20) 0 0 0 0 0
18-04-2018 22 (16:30) 8.6 (07:40) 15.3 11.11 (13:20) 7.22 (17:50) 0 0 0 0 0
17-04-2018 21.5 (18:40) 3.9 (06:50) 12.7 6.11 (18:50) 5 (18:50) 0 0 0 0 0
16-04-2018 14 (17:10) 7.5 (07:50) 10.8 5.56 (05:50) 4.17 (05:50) 16.4 13 3.2 0 0.2
15-04-2018 18.4 (17:00) 4.3 (00:00) 11.3 8.89 (16:10) 6.39 (16:10) 0 0 0 0 0
14-04-2018 14.8 (19:10) 3.9 (00:00) 9.4 8.89 (16:00) 6.39 (16:00) 0 0 0 0 0
13-04-2018 11.7 (18:30) 6.1 (00:00) 8.9 10.28 (14:50) 7.5 (14:50) 7.2 0 6.2 1 0
12-04-2018 12.3 (15:20) 0.2 (00:00) 6.3 8.06 (17:10) 6.39 (17:10) 0 0 0 0 0
11-04-2018 8.7 (12:20) 0 (00:00) 4.3 11.94 (09:00) 8.61 (08:50) 30.8 7.6 5 6.2 12
10-04-2018 5.4 (12:50) 3.1 (00:00) 4.3 14.17 (13:10) 9.17 (14:00) 29.2 1.2 2.6 15.4 10
09-04-2018 9.3 (11:50) 0.8 (00:00) 5.1 13.89 (18:40) 7.22 (12:50) 4.6 0 0 2.4 2.2
08-04-2018 10.4 (19:20) 3.8 (00:00) 7.1 9.17 (18:20) 6.39 (14:50) 19.4 13.4 5.4 0.6 0
07-04-2018 12.9 (11:00) 6.4 (00:00) 9.6 12.78 (11:40) 8.06 (11:40) 45 1.8 0.2 0.2 42.8
06-04-2018 19 (15:30) 8.2 (00:00) 13.6 17.5 (17:50) 11.39 (17:50) 1.6 0 0 0.4 1.2
05-04-2018 17.6 (17:10) 4.4 (00:00) 11 8.61 (15:00) 5.83 (18:50) 0.2 0.2 0 0 0
04-04-2018 14.6 (15:50) 7.1 (00:00) 10.9 14.72 (03:30) 7.5 (03:30) 5.4 0 0 0 5.4
03-04-2018 16.6 (18:40) 7 (00:00) 11.8 15.83 (22:10) 10.28 (22:10) 1.6 0.6 1 0 0
02-04-2018 15.5 (18:40) 7.7 (00:00) 11.6 16.94 (16:20) 10.83 (16:20) 0 0 0 0 0
01-04-2018 15.6 (16:40) -0.5 (-00:0) 7.6 10.83 (00:10) 6.94 (00:10) 0 0 0 0 0
31-03-2018 7.1 (00:10) 1.3 (00:00) 4.2 21.11 (10:20) 15.83 (10:20) 8.2 3.8 1.6 2.6 0.2
30-03-2018 11.7 (16:30) 3 (00:00) 7.3 15.56 (07:30) 11.11 (07:40) 0.4 0 0.4 0 0
29-03-2018 14.1 (17:50) 4.3 (00:00) 9.2 9.44 (17:50) 6.67 (15:20) 0 0 0 0 0
28-03-2018 18.4 (16:50) 4.2 (00:00) 11.3 8.06 (15:20) 5.56 (02:10) 0 0 0 0 0
27-03-2018 14.2 (15:10) 4.5 (00:00) 9.3 15 (12:10) 11.11 (13:40) 0 0 0 0 0
26-03-2018 9.4 (16:40) 4.5 (00:00) 6.9 16.39 (12:10) 11.11 (11:20) 0 0 0 0 0
25-03-2018 9.4 (16:50) 1.7 (00:00) 5.5 11.67 (15:50) 8.61 (15:50) 0 0 0 0 0
24-03-2018 8.6 (17:30) 1.8 (00:00) 5.2 12.5 (02:40) 8.61 (03:00) 11.8 11.6 0 0.2 0
23-03-2018 12.6 (15:20) -1.1 (-00:0) 5.8 11.11 (13:40) 8.33 (09:20) 1.8 0 0 0 1.8

Gráficas

Temp. máximas Temp. mínimas Temp. medias Precipitaciones Rachas de viento máximas Velocidades máximas media en intervalos de 10 minutos

Datos horarios

Fecha y hora oficial Temperatura (ºC) Velocidad del viento (km/h) Dirección del viento Racha (km/h) Dirección de racha Precipitación (mm) Presión (hPa) Tendencia (hPa) Humedad (%)
2018-04-21 23:00:00 14.9 6 Sudeste 20 Sur 0 -- -- 54
2018-04-21 22:00:00 15.3 12 Sur 22 Sur 0 -- -- 55
2018-04-21 21:00:00 16.2 8 Sudeste 18 Sur 0 -- -- 53
2018-04-21 20:00:00 17.4 12 Sur 27 Sur 0 -- -- 50
2018-04-21 19:00:00 18.5 18 Sudoeste 31 Sur 0 -- -- 47
2018-04-21 18:00:00 20 16 Sur 30 Sudoeste 0 -- -- 41
2018-04-21 17:00:00 19.9 21 Sur 34 Sudoeste 0 -- -- 40
2018-04-21 16:00:00 20.8 21 Sur 36 Sur 0 -- -- 40
2018-04-21 15:00:00 20.5 22 Sur 36 Sudoeste 0 -- -- 40
2018-04-21 14:00:00 20 23 Sur 39 Sur 0 -- -- 44
2018-04-21 13:00:00 19.5 23 Sur 35 Sudoeste 0 -- -- 45
2018-04-21 12:00:00 18.6 15 Sudoeste 26 Sur 0 -- -- 47
2018-04-21 11:00:00 17.2 16 Sur 23 Sur 0 -- -- 53
2018-04-21 10:00:00 14.8 6 Este 10 Este 0 -- -- 66
2018-04-21 09:00:00 11.5 5 Nordeste 8 Este 0 -- -- 75
2018-04-21 08:00:00 8.9 2 Este 8 Sur 0 -- -- 81
2018-04-21 07:00:00 9.4 5 Este 11 Este 0 -- -- 78
2018-04-21 06:00:00 9.3 4 Sudoeste 17 Sudeste 0 -- -- 78
2018-04-21 05:00:00 11.1 9 Sudeste 15 Sudeste 0 -- -- 69
2018-04-21 04:00:00 10.8 9 Este 17 Sur 0 -- -- 69
2018-04-21 03:00:00 12 13 Sur 18 Sur 0 -- -- 67
2018-04-21 02:00:00 12.7 14 Sur 18 Sur 0 -- -- 65
2018-04-21 01:00:00 13.2 13 Sur 17 Sur 0 -- -- 64
2018-04-21 00:00:00 12.9 8 Sudeste 19 Sudeste 0 -- -- 67
2018-04-20 23:00:00 14.3 17 Sur 29 Sudeste 0 -- -- 63
2018-04-20 22:00:00 15.8 21 Sur 34 Sur 0 -- -- 59
2018-04-20 21:00:00 16.3 19 Sur 35 Sur 0 -- -- 59
2018-04-20 20:00:00 18.1 23 Sur 38 Sur 0 -- -- 53
2018-04-20 19:00:00 19.2 25 Sur 40 Sur 0 -- -- 51
2018-04-20 18:00:00 19.7 27 Sur 42 Sur 0 -- -- 48
2018-04-20 17:00:00 19.7 31 Sur 42 Sur 0 -- -- 47
2018-04-20 16:00:00 20.2 25 Sudoeste 39 Sudoeste 0 -- -- 51
2018-04-20 15:00:00 20.3 21 Sur 33 Sur 0 -- -- 51
2018-04-20 14:00:00 19.7 20 Sudoeste 28 Sur 0 -- -- 53
2018-04-20 13:00:00 19.3 18 Sudoeste 26 Sur 0 -- -- 49
2018-04-20 12:00:00 18.1 15 Sudoeste 27 Sudoeste 0 -- -- 56
2018-04-20 11:00:00 17 13 Sur 21 Sur 0 -- -- 58
2018-04-20 10:00:00 15.8 3 Sudeste 6 Sudeste 0 -- -- 63
2018-04-20 09:00:00 12.1 3 Sudoeste 6 Este 0 -- -- 78
2018-04-20 08:00:00 11.1 3 Sudoeste 8 Sur 0 -- -- 77
2018-04-20 07:00:00 11.6 5 Sudeste 12 Sudeste 0 -- -- 74
2018-04-20 06:00:00 12.3 6 Sur 12 Sur 0 -- -- 71
2018-04-20 05:00:00 12.4 2 Sudoeste 9 Sur 0 -- -- 71
2018-04-20 04:00:00 13.3 8 Sudeste 20 Sudoeste 0 -- -- 68
2018-04-20 03:00:00 14.3 14 Sur 25 Sur 0 -- -- 63
2018-04-20 02:00:00 14.3 17 Sur 30 Sur 0 -- -- 64
2018-04-20 01:00:00 14.1 15 Sur 27 Sur 0 -- -- 65
2018-04-20 00:00:00 13.4 9 Este 26 Sur 0 -- -- 68
2018-04-19 23:00:00 14.6 17 Sur 25 Sur 0 -- -- 69
2018-04-19 22:00:00 15.4 18 Sur 31 Sur 0 -- -- 67
2018-04-19 21:00:00 16.7 19 Sur 39 Sur 0 -- -- 61
2018-04-19 20:00:00 18.1 26 Sur 38 Sur 0 -- -- 56
2018-04-19 19:00:00 19.1 26 Sudoeste 44 Sur 0 -- -- 54
2018-04-19 18:00:00 19.9 26 Sur 46 Sudeste 0 -- -- 52
2018-04-19 17:00:00 20.5 24 Sudoeste 45 Sudoeste 0 -- -- 49
2018-04-19 16:00:00 20.8 24 Sudoeste 39 Sur 0 -- -- 48
2018-04-19 15:00:00 20.6 21 Sur 37 Sur 0 -- -- 47
2018-04-19 14:00:00 20.4 21 Sur 31 Sur 0 -- -- 46
2018-04-19 13:00:00 19.5 20 Sur 31 Sur 0 -- -- 46
2018-04-19 12:00:00 18.7 18 Sur 33 Sudeste 0 -- -- 48
2018-04-19 11:00:00 17 22 Sur 34 Sur 0 -- -- 52
2018-04-19 10:00:00 15.9 13 Sur 19 Sur 0 -- -- 59
2018-04-19 09:00:00 13 2 Sur 7 Sudeste 0 -- -- 67
2018-04-19 08:00:00 11.9 3 Este 12 Sur 0 -- -- 68
2018-04-19 07:00:00 11.7 7 Sudeste 16 Sur 0 -- -- 68
2018-04-19 06:00:00 12.7 14 Sur 19 Sur 0 -- -- 64
2018-04-19 05:00:00 12.9 12 Sur 17 Sur 0 -- -- 64
2018-04-19 04:00:00 12.8 8 Sur 13 Sur 0 -- -- 65
2018-04-19 03:00:00 13.7 5 Sudeste 21 Sur 0 -- -- 61
2018-04-19 02:00:00 14.2 12 Sur 23 Sur 0 -- -- 60
2018-04-19 01:00:00 14.8 15 Sur 25 Sur 0 -- -- 59
2018-04-19 00:00:00 15.5 17 Sur 23 Sudeste 0 -- -- 55
2018-04-18 23:00:00 15.3 11 Sudeste 20 Sudeste 0 -- -- 56
2018-04-18 22:00:00 15.4 7 Sur 15 Sur 0 -- -- 52
2018-04-18 21:00:00 17.5 11 Sur 23 Sur 0 -- -- 45
2018-04-18 20:00:00 19.7 18 Sur 33 Sur 0 -- -- 37
2018-04-18 19:00:00 20.9 24 Sur 36 Sur 0 -- -- 35
2018-04-18 18:00:00 21.4 25 Sur 37 Sur 0 -- -- 36
2018-04-18 17:00:00 21.9 21 Sur 35 Sur 0 -- -- 41
2018-04-18 16:00:00 21.8 22 Sur 36 Sur 0 -- -- 38
2018-04-18 15:00:00 21.5 22 Sur 36 Sur 0 -- -- 39
2018-04-18 14:00:00 21.2 22 Sur 40 Sur 0 -- -- 41
2018-04-18 13:00:00 20.8 22 Sur 33 Sur 0 -- -- 40
2018-04-18 12:00:00 20 18 Sur 26 Sudoeste 0 -- -- 46
2018-04-18 11:00:00 18.1 6 Este 24 Sudeste 0 -- -- 62
2018-04-18 10:00:00 14.2 4 Este 7 Nordeste 0 -- -- 75
2018-04-18 09:00:00 10.6 0 Calma 4 Nordeste 0 -- -- 80
2018-04-18 08:00:00 9.2 0 Calma 5 Noroeste 0 -- -- 84
2018-04-18 07:00:00 8.8 4 Noroeste 8 Nordeste 0 -- -- 85
2018-04-18 06:00:00 9.7 4 Nordeste 23 Sudeste 0 -- -- 80
2018-04-18 05:00:00 12.7 11 Sudeste 22 Sudeste 0 -- -- 69
2018-04-18 04:00:00 11.6 9 Sudeste 23 Sur 0 -- -- 75
2018-04-18 03:00:00 11.9 10 Sur 15 Sudeste 0 -- -- 74
2018-04-18 02:00:00 11.8 4 Sudoeste 13 Sudeste 0 -- -- 73
2018-04-18 01:00:00 12.1 0 Calma 6 Sudeste 0 -- -- 73
2018-04-18 00:00:00 13.2 0 Calma 8 Sudoeste 0 -- -- 69
2018-04-17 23:00:00 14.2 0 Calma 10 Sudeste 0 -- -- 66
2018-04-17 22:00:00 15.4 3 Sur 12 Sur 0 -- -- 63
2018-04-17 21:00:00 16.8 8 Sur 10 Sudoeste 0 -- -- 59
2018-04-17 20:00:00 19.8 12 Oeste 20 Oeste 0 -- -- 48
2018-04-17 19:00:00 21.2 17 Oeste 22 Noroeste 0 -- -- 46
2018-04-17 18:00:00 21 11 Nordeste 17 Nordeste 0 -- -- 49
2018-04-17 17:00:00 21.2 13 Nordeste 17 Nordeste 0 -- -- 46
2018-04-17 16:00:00 20.6 8 Nordeste 18 Nordeste 0 -- -- 46
2018-04-17 15:00:00 19.4 7 Noroeste 14 Noroeste 0 -- -- 53
2018-04-17 14:00:00 18.2 6 Norte 12 Norte 0 -- -- 56
2018-04-17 13:00:00 16.7 4 Norte 11 Este 0 -- -- 58
2018-04-17 12:00:00 15.1 5 Nordeste 10 Nordeste 0 -- -- 59
2018-04-17 11:00:00 13.1 5 Este 9 Nordeste 0 -- -- 75
2018-04-17 10:00:00 9.8 3 Este 6 Este 0 -- -- 92
2018-04-17 09:00:00 7.4 3 Nordeste 5 Nordeste 0 -- -- 97
2018-04-17 08:00:00 4.6 0 Calma 6 Este 0 -- -- 96
2018-04-17 07:00:00 4.3 3 Sudeste 7 Noroeste 0 -- -- 97
2018-04-17 06:00:00 4.8 3 Oeste 5 Oeste 0 -- -- 96
2018-04-17 05:00:00 4.9 4 Oeste 5 Oeste 0 -- -- 95
2018-04-17 04:00:00 6 2 Este 4 Oeste 0 -- -- 94
2018-04-17 03:00:00 6.1 4 Oeste 5 Oeste 0 -- -- 92
2018-04-17 02:00:00 6.9 0 Calma 5 Noroeste 0 -- -- 91
2018-04-17 01:00:00 7.5 5 Noroeste 6 Noroeste 0 -- -- 89
2018-04-17 00:00:00 8.4 0 Calma 6 Noroeste 0 -- -- 86
2018-04-16 23:00:00 9.1 5 Sudoeste 8 Sudoeste 0 -- -- 83
2018-04-16 22:00:00 10.1 4 Noroeste 9 Sudoeste 0 -- -- 81
2018-04-16 21:00:00 11.9 6 Sudoeste 8 Sudoeste 0 -- -- 73
2018-04-16 20:00:00 13.3 2 Norte 10 Noroeste 0 -- -- 65
2018-04-16 19:00:00 13.7 5 Noroeste 12 Noroeste 0.2 -- -- 64
2018-04-16 18:00:00 13.7 6 Noroeste 18 Noroeste 0 -- -- 62
2018-04-16 17:00:00 13.9 6 Noroeste 15 Noroeste 0 -- -- 61
2018-04-16 16:00:00 13.3 4 Noroeste 16 Noroeste 0 -- -- 65
2018-04-16 15:00:00 12.5 8 Noroeste 18 Noroeste 0 -- -- 67
2018-04-16 14:00:00 11.4 12 Noroeste 19 Norte 0 -- -- 74
2018-04-16 13:00:00 10.5 12 Noroeste 19 Noroeste 0 -- -- 79
2018-04-16 12:00:00 8.6 7 Noroeste 12 Noroeste 0 -- -- 88
2018-04-16 11:00:00 7.6 5 Noroeste 9 Norte 0.2 -- -- 92
2018-04-16 10:00:00 7.6 5 Norte 16 Noroeste 0.2 -- -- 92
2018-04-16 09:00:00 7.6 12 Noroeste 17 Noroeste 0 -- -- 95
2018-04-16 08:00:00 7.5 12 Oeste 16 Noroeste 0.2 -- -- 97
2018-04-16 07:00:00 7.7 10 Noroeste 17 Oeste 2.6 -- -- 96
2018-04-16 06:00:00 8.2 14 Oeste 20 Oeste 6.2 -- -- 95
2018-04-16 05:00:00 8.9 3 Oeste 10 Norte 5.2 -- -- 94
2018-04-16 04:00:00 9.3 7 Norte 17 Noroeste 1.4 -- -- 91
2018-04-16 03:00:00 10.4 3 Noroeste 9 Noroeste 0.2 -- -- 82
2018-04-16 02:00:00 10.5 4 Noroeste 6 Noroeste 0 -- -- 81
2018-04-16 01:00:00 10.9 6 Norte 11 Sur 0 -- -- 80
2018-04-16 00:00:00 11.8 7 Sudoeste 9 Sudoeste 0 -- -- 74
2018-04-15 23:00:00 11.9 7 Oeste 9 Noroeste 0 -- -- 74
2018-04-15 22:00:00 12.6 4 Este 9 Noroeste 0 -- -- 72
2018-04-15 21:00:00 13.3 12 Noroeste 23 Noroeste 0 -- -- 71
2018-04-15 20:00:00 15 18 Noroeste 24 Noroeste 0 -- -- 62
2018-04-15 19:00:00 16.1 16 Noroeste 24 Noroeste 0 -- -- 55
2018-04-15 18:00:00 18 19 Noroeste 31 Noroeste 0 -- -- 49
2018-04-15 17:00:00 18.4 12 Noroeste 32 Oeste 0 -- -- 50
2018-04-15 16:00:00 17.7 16 Noroeste 23 Noroeste 0 -- -- 52
2018-04-15 15:00:00 16.8 8 Noroeste 27 Oeste 0 -- -- 57
2018-04-15 14:00:00 15.3 20 Noroeste 30 Noroeste 0 -- -- 58
2018-04-15 13:00:00 14.9 10 Norte 21 Norte 0 -- -- 61
2018-04-15 12:00:00 12.4 3 Norte 8 Norte 0 -- -- 71
2018-04-15 11:00:00 9.3 3 Norte 6 Nordeste 0 -- -- 86
2018-04-15 10:00:00 8.1 4 Nordeste 8 Este 0 -- -- 90
2018-04-15 09:00:00 6.2 3 Este 6 Noroeste 0 -- -- 94
2018-04-15 08:00:00 4.5 2 Nordeste 5 Sudeste 0 -- -- 93
2018-04-15 07:00:00 4.9 4 Norte 10 Sur 0 -- -- 91
2018-04-15 06:00:00 6.7 8 Sur 19 Sur 0 -- -- 89
2018-04-15 05:00:00 7.3 6 Sur 14 Sudoeste 0 -- -- 88
2018-04-15 04:00:00 7.3 5 Oeste 17 Sur 0 -- -- 88
2018-04-15 03:00:00 8.5 13 Sudeste 21 Sudeste 0 -- -- 87
2018-04-15 02:00:00 8.6 10 Sudeste 24 Sudeste 0 -- -- 86
2018-04-15 01:00:00 8.8 14 Sudeste 23 Sudeste 0 -- -- 84
2018-04-15 00:00:00 9.1 4 Este 19 Sudeste 0 -- -- 82
2018-04-14 23:00:00 9.8 3 Norte 17 Sudoeste 0 -- -- 77
2018-04-14 22:00:00 9.8 3 Noroeste 16 Sudoeste 0 -- -- 74
2018-04-14 21:00:00 10.6 14 Sudoeste 19 Sudoeste 0 -- -- 72
2018-04-14 20:00:00 14 10 Sudoeste 17 Sudoeste 0 -- -- 60
2018-04-14 19:00:00 14.5 10 Sudoeste 18 Sudoeste 0 -- -- 61
2018-04-14 18:00:00 13 14 Sudoeste 26 Sudoeste 0 -- -- 61
2018-04-14 17:00:00 12.8 21 Sudoeste 30 Sudoeste 0 -- -- 58
2018-04-14 16:00:00 12.9 23 Oeste 32 Oeste 0 -- -- 58
2018-04-14 15:00:00 13.9 12 Oeste 27 Noroeste 0 -- -- 59
2018-04-14 14:00:00 13.5 6 Norte 15 Este 0 -- -- 58
2018-04-14 13:00:00 13.4 7 Este 17 Nordeste 0 -- -- 64
2018-04-14 12:00:00 12 6 Noroeste 13 Noroeste 0 -- -- 68
2018-04-14 11:00:00 9.7 3 Norte 8 Noroeste 0 -- -- 75
2018-04-14 10:00:00 7.6 3 Noroeste 8 Norte 0 -- -- 83
2018-04-14 09:00:00 5 4 Norte 9 Este 0 -- -- 90
2018-04-14 08:00:00 3.9 3 Noroeste 12 Sudeste 0 -- -- 90
2018-04-14 07:00:00 4.7 2 Sur 9 Sur 0 -- -- 89
2018-04-14 06:00:00 4.9 3 Noroeste 8 Noroeste 0 -- -- 89
2018-04-14 05:00:00 5 5 Sudeste 10 Sudeste 0 -- -- 88
2018-04-14 04:00:00 5.2 3 Oeste 9 Este 0 -- -- 87
2018-04-14 03:00:00 6 4 Sudeste 12 Sur 0 -- -- 85
2018-04-14 02:00:00 6.9 9 Sur 13 Sur 0 -- -- 81
2018-04-14 01:00:00 7.2 7 Sur 20 Sur 0 -- -- 80
2018-04-14 00:00:00 7.5 14 Sur 23 Sur 0 -- -- 80
2018-04-13 23:00:00 8.1 15 Sur 26 Sudeste 0 -- -- 77
2018-04-13 22:00:00 8.6 14 Sur 24 Sur 0 -- -- 75
2018-04-13 21:00:00 9.3 15 Sudeste 21 Sudeste 0 -- -- 73
2018-04-13 20:00:00 10.9 11 Sur 18 Sur 0 -- -- 70
2018-04-13 19:00:00 11.6 11 Sudeste 18 Sudeste 0 -- -- 64
2018-04-13 18:00:00 11 9 Sudeste 23 Sudeste 0 -- -- 66
2018-04-13 17:00:00 10.4 15 Sudeste 31 Este 0 -- -- 73
2018-04-13 16:00:00 8.9 11 Sudeste 32 Sudeste 0.2 -- -- 80
2018-04-13 15:00:00 8.1 26 Sudeste 37 Sudeste 0 -- -- 85
2018-04-13 14:00:00 8.1 25 Sudeste 34 Este 0.2 -- -- 81
2018-04-13 13:00:00 7.9 17 Este 26 Este 0.6 -- -- 88
2018-04-13 12:00:00 6.8 7 Sur 28 Sur 2.6 -- -- 89
2018-04-13 11:00:00 7.1 16 Sur 28 Sudeste 2.2 -- -- 88
2018-04-13 10:00:00 7.5 9 Sur 15 Sudeste 1 -- -- 90
2018-04-13 09:00:00 7.3 13 Sur 24 Sur 0.2 -- -- 88
2018-04-13 08:00:00 7.3 18 Sur 26 Sur 0 -- -- 87
2018-04-13 07:00:00 7 15 Sur 35 Sur 0.2 -- -- 88
2018-04-13 06:00:00 7.6 11 Sudeste 21 Sudeste 0 -- -- 84
2018-04-13 05:00:00 7.4 14 Sur 19 Sur 0 -- -- 82
2018-04-13 04:00:00 6.5 11 Sur 22 Sur 0 -- -- 84
2018-04-13 03:00:00 6.3 9 Sudeste 20 Sur 0 -- -- 85
2018-04-13 02:00:00 7 15 Sur 21 Sur 0 -- -- 84
2018-04-13 01:00:00 7 16 Sur 27 Sur 0 -- -- 82
2018-04-13 00:00:00 7.2 18 Sur 29 Sur 0 -- -- 83
2018-04-12 23:00:00 7.7 14 Sur 22 Sur 0 -- -- 83
2018-04-12 22:00:00 8.8 6 Sur 22 Sudeste 0 -- -- 76
2018-04-12 21:00:00 9.3 8 Sur 13 Sudeste 0 -- -- 76
2018-04-12 20:00:00 10.7 0 Calma 7 Norte 0 -- -- 75
2018-04-12 19:00:00 11.4 6 Norte 16 Norte 0 -- -- 70
2018-04-12 18:00:00 11.4 8 Noroeste 29 Oeste 0 -- -- 68
2018-04-12 17:00:00 11.7 19 Oeste 28 Oeste 0 -- -- 70
2018-04-12 16:00:00 11.5 17 Noroeste 27 Noroeste 0 -- -- 66
2018-04-12 15:00:00 11.4 17 Noroeste 29 Oeste 0 -- -- 70
2018-04-12 14:00:00 11.2 14 Norte 26 Noroeste 0 -- -- 70
2018-04-12 13:00:00 8.7 5 Noroeste 12 Este 0 -- -- 94
2018-04-12 12:00:00 5.6 4 Este 9 Sudeste 0 -- -- 99
2018-04-12 11:00:00 2.8 3 Sur 6 Sudeste 0 -- -- 99
2018-04-12 10:00:00 1.9 0 Calma 5 Este 0 -- -- 98
2018-04-12 09:00:00 1.1 0 Calma 5 Este 0 -- -- 98
2018-04-12 08:00:00 0.8 4 Nordeste 4 Nordeste 0 -- -- 98
2018-04-12 07:00:00 0.6 3 Oeste 5 Oeste 0 -- -- 98
2018-04-12 06:00:00 0.6 0 Calma 4 Sudeste 0 -- -- 98
2018-04-12 05:00:00 0.6 0 Calma 4 Este 0 -- -- 98
2018-04-12 04:00:00 0.7 3 Nordeste 6 Sudoeste 0 -- -- 97
2018-04-12 03:00:00 0.6 3 Norte 12 Sudeste 0 -- -- 98
2018-04-12 02:00:00 1 8 Sudeste 11 Sudeste 0 -- -- 98
2018-04-12 01:00:00 0.3 2 Oeste 8 Noroeste 0 -- -- 97
2018-04-12 00:00:00 0.5 2 Sudoeste 7 Este 0 -- -- 98
2018-04-11 23:00:00 0.3 4 Sudeste 6 Sudeste 0 -- -- 97
2018-04-11 22:00:00 0.1 4 Sur 8 Este 0.4 -- -- 97
2018-04-11 21:00:00 0.2 6 Norte 9 Oeste 4 -- -- 96
2018-04-11 20:00:00 0.4 3 Oeste 9 Oeste 3.8 -- -- 94
2018-04-11 19:00:00 2.7 4 Norte 13 Sudeste 3.8 -- -- 94
2018-04-11 18:00:00 2.6 12 Sudoeste 23 Sur 3.6 -- -- 93
2018-04-11 17:00:00 3.2 15 Sudeste 31 Sur 2 -- -- 91
2018-04-11 16:00:00 4.8 21 Sur 36 Sur 0.6 -- -- 88
2018-04-11 15:00:00 7.2 9 Sudoeste 25 Norte 0 -- -- 78
2018-04-11 14:00:00 7.1 9 Sudeste 27 Sudeste 0 -- -- 81
2018-04-11 13:00:00 8.3 8 Norte 29 Norte 0 -- -- 75
2018-04-11 12:00:00 8.3 17 Noroeste 29 Noroeste 0 -- -- 78
2018-04-11 11:00:00 6 22 Noroeste 37 Noroeste 0 -- -- 81
2018-04-11 10:00:00 5.1 26 Noroeste 39 Noroeste 0.2 -- -- 83
2018-04-11 09:00:00 4.7 30 Noroeste 43 Noroeste 0.2 -- -- 85
2018-04-11 08:00:00 4.3 21 Noroeste 32 Noroeste 1.6 -- -- 90
2018-04-11 07:00:00 4.3 15 Noroeste 28 Noroeste 3 -- -- 91
2018-04-11 06:00:00 4.3 8 Noroeste 21 Oeste 1.6 -- -- 93
2018-04-11 05:00:00 4 14 Oeste 19 Oeste 2.8 -- -- 94
2018-04-11 04:00:00 3.7 4 Oeste 12 Norte 2.2 -- -- 95
2018-04-11 03:00:00 4.1 3 Noroeste 10 Norte 0.4 -- -- 92
2018-04-11 02:00:00 4.1 4 Sudoeste 21 Sudeste 0 -- -- 91
2018-04-11 01:00:00 4 18 Sudeste 41 Sudeste 0.6 -- -- 91
2018-04-11 00:00:00 3.8 27 Sudeste 41 Sudeste 1.4 -- -- 91
2018-04-10 23:00:00 4.1 28 Sudeste 42 Sudeste 1.2 -- -- 90
2018-04-10 22:00:00 4.3 28 Sudeste 39 Sudeste 1 -- -- 90
2018-04-10 21:00:00 4.2 17 Sudeste 38 Sudeste 1.6 -- -- 90
2018-04-10 20:00:00 4.5 26 Sudeste 39 Sudeste 2.2 -- -- 89
2018-04-10 19:00:00 4.6 20 Sudeste 35 Sudeste 2.6 -- -- 91
2018-04-10 18:00:00 4.4 23 Sudeste 39 Sudeste 2.8 -- -- 90
2018-04-10 17:00:00 4.6 21 Sudeste 46 Sudeste 3 -- -- 90
2018-04-10 16:00:00 4.9 32 Sudeste 50 Sudeste 2.8 -- -- 90
2018-04-10 15:00:00 5.3 32 Sudeste 49 Sudeste 2.4 -- -- 89
2018-04-10 14:00:00 4.7 33 Sudeste 51 Sudeste 2.8 -- -- 89
2018-04-10 13:00:00 5.2 26 Sudeste 46 Sudeste 1.6 -- -- 86
2018-04-10 12:00:00 5.2 18 Sudeste 40 Sudeste 1.8 -- -- 89
2018-04-10 11:00:00 4.9 21 Sudeste 40 Sur 0.6 -- -- 92
2018-04-10 10:00:00 4.4 25 Sur 38 Sudeste 0 -- -- 89
2018-04-10 09:00:00 4.1 19 Sur 30 Sur 0 -- -- 89
2018-04-10 08:00:00 3.7 12 Sudeste 28 Sudeste 0.2 -- -- 91
2018-04-10 07:00:00 3.7 16 Sudeste 26 Sudeste 0 -- -- 91
2018-04-10 06:00:00 3.6 14 Sudeste 21 Sudeste 0.2 -- -- 94
2018-04-10 05:00:00 3.5 8 Sudeste 18 Sur 0 -- -- 93
2018-04-10 04:00:00 3.4 9 Sudeste 14 Este 0.8 -- -- 93
2018-04-10 03:00:00 3.5 6 Sur 14 Sur 0.2 -- -- 92
2018-04-10 02:00:00 3.6 9 Sudoeste 19 Sur 0 -- -- 91
2018-04-10 01:00:00 3.8 5 Sur 18 Oeste 0 -- -- 88
2018-04-10 00:00:00 3.7 4 Sudoeste 9 Sudoeste 0 -- -- 92
2018-04-09 23:00:00 3.5 8 Noroeste 14 Sudoeste 0.4 -- -- 92
2018-04-09 22:00:00 3.6 6 Sur 16 Sur 0 -- -- 87
2018-04-09 21:00:00 3.5 9 Sur 18 Sudoeste 0 -- -- 88
2018-04-09 20:00:00 4.1 9 Este 20 Este 0 -- -- 91
2018-04-09 19:00:00 3.5 6 Oeste 50 Oeste 1.8 -- -- 92
2018-04-09 18:00:00 6.7 15 Este 27 Este 0 -- -- 81
2018-04-09 17:00:00 6.7 7 Noroeste 17 Nordeste 0 -- -- 83
2018-04-09 16:00:00 6.5 8 Norte 23 Sudeste 0.2 -- -- 87
2018-04-09 15:00:00 7.3 10 Sudeste 28 Sur 1.8 -- -- 84
2018-04-09 14:00:00 7.3 18 Sur 29 Sur 0.4 -- -- 85
2018-04-09 13:00:00 7.4 18 Sur 37 Sur 0 -- -- 82
2018-04-09 12:00:00 8.8 17 Sur 28 Sur 0 -- -- 75
2018-04-09 11:00:00 7.3 15 Sur 25 Sudeste 0 -- -- 74
2018-04-09 10:00:00 7.1 6 Sudeste 19 Sur 0 -- -- 80
2018-04-09 09:00:00 4.1 5 Este 12 Este 0 -- -- 87
2018-04-09 08:00:00 1.2 2 Sur 8 Nordeste 0 -- -- 92
2018-04-09 07:00:00 0.9 0 Calma 5 Nordeste 0 -- -- 92
2018-04-09 06:00:00 1.5 3 Este 8 Sudoeste 0 -- -- 88
2018-04-09 05:00:00 1.9 2 Nordeste 5 Norte 0 -- -- 87
2018-04-09 04:00:00 2 5 Noroeste 6 Noroeste 0 -- -- 88
2018-04-09 03:00:00 3.3 3 Este 5 Noroeste 0 -- -- 84
2018-04-09 02:00:00 4.2 3 Sur 9 Sudoeste 0 -- -- 79
2018-04-09 01:00:00 4.9 6 Sudoeste 10 Sudoeste 0 -- -- 79
2018-04-09 00:00:00 5.3 4 Sur 8 Sudeste 0 -- -- 78
2018-04-08 23:00:00 5.6 5 Nordeste 9 Noroeste 0 -- -- 78
2018-04-08 22:00:00 6.6 10 Noroeste 22 Oeste 0 -- -- 75
2018-04-08 21:00:00 7.4 16 Noroeste 25 Noroeste 0 -- -- 76
2018-04-08 20:00:00 9.8 17 Noroeste 30 Noroeste 0 -- -- 67
2018-04-08 19:00:00 10.1 19 Noroeste 33 Noroeste 0 -- -- 69
2018-04-08 18:00:00 9.8 16 Noroeste 30 Norte 0 -- -- 74
2018-04-08 17:00:00 9.5 19 Noroeste 28 Noroeste 0 -- -- 77
2018-04-08 16:00:00 8.2 18 Noroeste 26 Noroeste 0 -- -- 81
2018-04-08 15:00:00 7.6 22 Noroeste 31 Noroeste 0 -- -- 80
2018-04-08 14:00:00 7 16 Noroeste 26 Noroeste 0.2 -- -- 90
2018-04-08 13:00:00 5.9 15 Noroeste 24 Noroeste 0.4 -- -- 96
2018-04-08 12:00:00 5.4 18 Noroeste 24 Noroeste 0.6 -- -- 97
2018-04-08 11:00:00 4.8 9 Noroeste 17 Noroeste 1 -- -- 99
2018-04-08 10:00:00 3.9 2 Nordeste 8 Nordeste 1 -- -- 99
2018-04-08 09:00:00 3.8 4 Nordeste 7 Norte 1 -- -- 98
2018-04-08 08:00:00 4.1 5 Noroeste 10 Noroeste 0.6 -- -- 98
2018-04-08 07:00:00 4 9 Noroeste 21 Oeste 1.2 -- -- 97
2018-04-08 06:00:00 4.4 17 Oeste 23 Oeste 2.2 -- -- 97
2018-04-08 05:00:00 5.8 8 Norte 13 Norte 2.4 -- -- 98
2018-04-08 04:00:00 5.7 2 Nordeste 5 Oeste 2.6 -- -- 98
2018-04-08 03:00:00 5.8 4 Sudoeste 6 Noroeste 2.6 -- -- 98
2018-04-08 02:00:00 5.9 2 Noroeste 6 Sudeste 1.4 -- -- 97
2018-04-08 01:00:00 6.3 5 Sudeste 11 Sudeste 2.2 -- -- 97
2018-04-08 00:00:00 6.4 7 Este 13 Nordeste 12 -- -- 97
2018-04-07 23:00:00 7.8 12 Nordeste 18 Nordeste 9.4 -- -- 96
2018-04-07 22:00:00 8 12 Noroeste 24 Noroeste 7 -- -- 96
2018-04-07 21:00:00 8.5 6 Este 10 Este 3.8 -- -- 96
2018-04-07 20:00:00 8.5 5 Sudeste 9 Este 7.2 -- -- 95
2018-04-07 19:00:00 8.9 4 Oeste 9 Oeste 3.4 -- -- 91
2018-04-07 18:00:00 9.5 4 Oeste 11 Norte 0 -- -- 87
2018-04-07 17:00:00 11.1 6 Sudeste 31 Sudoeste 0 -- -- 80
2018-04-07 16:00:00 11.2 19 Sur 25 Sur 0 -- -- 75
2018-04-07 15:00:00 11 17 Sur 35 Sur 0 -- -- 73
2018-04-07 14:00:00 10.8 22 Sur 40 Sur 0 -- -- 69
2018-04-07 13:00:00 10.2 29 Sur 44 Sur 0.2 -- -- 64
2018-04-07 12:00:00 10.8 26 Sur 46 Sudoeste 0.2 -- -- 65
2018-04-07 11:00:00 12.9 21 Sur 33 Sudeste 0 -- -- 52
2018-04-07 10:00:00 11.5 20 Sur 27 Sur 0 -- -- 54
2018-04-07 09:00:00 11 19 Sur 28 Sur 0 -- -- 56
2018-04-07 08:00:00 10.7 22 Sur 40 Sudeste 0 -- -- 61
2018-04-07 07:00:00 11.7 22 Sudeste 35 Sudeste 0 -- -- 60
2018-04-07 06:00:00 11.6 21 Sur 33 Sur 0 -- -- 68
2018-04-07 05:00:00 10.9 20 Sur 32 Sur 0.2 -- -- 78
2018-04-07 04:00:00 10.5 9 Sudeste 21 Sudeste 0 -- -- 81
2018-04-07 03:00:00 10.1 17 Sur 28 Sudeste 0.2 -- -- 81
2018-04-07 02:00:00 10 22 Sudeste 37 Sur 1 -- -- 82
2018-04-07 01:00:00 10.6 23 Sur 40 Sur 0.4 -- -- 80
2018-04-07 00:00:00 11.4 24 Sur 48 Sudeste 0.2 -- -- 72
2018-04-06 23:00:00 11.9 35 Sur 53 Sudeste 0 -- -- 67
2018-04-06 22:00:00 12.2 33 Sudeste 51 Sudeste 0 -- -- 65
2018-04-06 21:00:00 12 22 Sudeste 39 Sudeste 0.2 -- -- 67
2018-04-06 20:00:00 12.4 19 Sur 28 Sur 0 -- -- 67
2018-04-06 19:00:00 11.5 21 Sur 48 Sur 0.8 -- -- 73
2018-04-06 18:00:00 13.8 36 Sur 63 Sur 0.4 -- -- 59
2018-04-06 17:00:00 17 31 Sur 49 Sur 0 -- -- 43
2018-04-06 16:00:00 18.5 28 Sur 40 Sur 0 -- -- 42
2018-04-06 15:00:00 18.3 26 Sur 45 Sur 0 -- -- 39
2018-04-06 14:00:00 18.2 30 Sur 49 Sur 0 -- -- 37
2018-04-06 13:00:00 15.8 33 Sur 47 Sur 0 -- -- 42
2018-04-06 12:00:00 13.7 30 Sur 44 Sur 0 -- -- 49
2018-04-06 11:00:00 12 25 Sur 37 Sur 0 -- -- 56
2018-04-06 10:00:00 10.6 23 Sur 37 Sur 0 -- -- 58
2018-04-06 09:00:00 11.4 20 Sur 38 Sur 0 -- -- 55
2018-04-06 08:00:00 9.4 26 Sur 43 Sur 0 -- -- 59
2018-04-06 07:00:00 9.9 25 Sur 38 Sur 0 -- -- 56
2018-04-06 06:00:00 9.6 28 Sur 44 Sur 0 -- -- 57
2018-04-06 05:00:00 8.2 17 Sudeste 31 Sur 0 -- -- 72
2018-04-06 04:00:00 9.2 19 Sur 31 Sur 0 -- -- 68
2018-04-06 03:00:00 9.8 23 Sur 29 Sur 0 -- -- 61
2018-04-06 02:00:00 10.5 19 Sur 27 Sur 0 -- -- 57
2018-04-06 01:00:00 10.9 15 Sur 26 Sur 0 -- -- 57
2018-04-06 00:00:00 10.1 9 Sudeste 26 Sudeste 0 -- -- 61
2018-04-05 23:00:00 10.5 10 Sudeste 27 Sudeste 0 -- -- 62
2018-04-05 22:00:00 11.2 15 Sudeste 22 Este 0 -- -- 61
2018-04-05 21:00:00 12.4 16 Sur 20 Sur 0 -- -- 56
2018-04-05 20:00:00 14.6 10 Sur 27 Sur 0 -- -- 47
2018-04-05 19:00:00 15 18 Sur 28 Sur 0 -- -- 45
2018-04-05 18:00:00 16.6 15 Sur 23 Sudeste 0 -- -- 40
2018-04-05 17:00:00 17.4 12 Sur 23 Sur 0 -- -- 41
2018-04-05 16:00:00 17 11 Sur 27 Sudeste 0 -- -- 41
2018-04-05 15:00:00 16 19 Sudeste 31 Sudeste 0 -- -- 48
2018-04-05 14:00:00 14 8 Este 15 Este 0 -- -- 55
2018-04-05 13:00:00 12.3 6 Este 15 Este 0 -- -- 56
2018-04-05 12:00:00 10.8 5 Noroeste 14 Este 0 -- -- 64
2018-04-05 11:00:00 10.3 8 Nordeste 14 Nordeste 0 -- -- 69
2018-04-05 10:00:00 9.1 6 Este 11 Este 0 -- -- 73
2018-04-05 09:00:00 6.5 3 Sudoeste 8 Sur 0 -- -- 84
2018-04-05 08:00:00 4.5 6 Sur 9 Oeste 0 -- -- 90
2018-04-05 07:00:00 5.2 5 Oeste 22 Oeste 0 -- -- 86
2018-04-05 06:00:00 5.8 14 Oeste 19 Oeste 0.2 -- -- 86
2018-04-05 05:00:00 6.6 12 Oeste 17 Oeste 0 -- -- 87
2018-04-05 04:00:00 6.7 5 Noroeste 14 Noroeste 0 -- -- 88
2018-04-05 03:00:00 6.9 6 Noroeste 14 Noroeste 0 -- -- 90
2018-04-05 02:00:00 6.5 6 Noroeste 8 Noroeste 0 -- -- 92
2018-04-05 01:00:00 6.6 6 Oeste 14 Norte 0 -- -- 94
2018-04-05 00:00:00 7.1 15 Norte 35 Norte 1.8 -- -- 92
2018-04-04 23:00:00 7.7 9 Sudeste 24 Norte 0.2 -- -- 90
2018-04-04 22:00:00 7.9 12 Sudoeste 21 Sudoeste 0 -- -- 87
2018-04-04 21:00:00 8.7 4 Sudeste 18 Este 1.8 -- -- 86
2018-04-04 20:00:00 10.1 6 Sudeste 18 Nordeste 1 -- -- 82
2018-04-04 19:00:00 11.7 12 Noroeste 30 Noroeste 0.6 -- -- 69
2018-04-04 18:00:00 12.6 10 Este 22 Este 0 -- -- 64
2018-04-04 17:00:00 12.4 16 Nordeste 42 Oeste 0 -- -- 64
2018-04-04 16:00:00 14.2 22 Sudoeste 38 Sudoeste 0 -- -- 52
2018-04-04 15:00:00 14.3 19 Sudoeste 32 Sudoeste 0 -- -- 52
2018-04-04 14:00:00 13.1 18 Sudoeste 33 Sudoeste 0 -- -- 52
2018-04-04 13:00:00 12.6 17 Sudoeste 41 Sudoeste 0 -- -- 53
2018-04-04 12:00:00 11.5 20 Sudoeste 31 Sudoeste 0 -- -- 55
2018-04-04 11:00:00 10.4 14 Sudoeste 42 Sudoeste 0 -- -- 58
2018-04-04 10:00:00 10 14 Sudoeste 36 Sudoeste 0 -- -- 60
2018-04-04 09:00:00 9.1 15 Oeste 35 Sudoeste 0 -- -- 61
2018-04-04 08:00:00 8.4 10 Oeste 27 Sudoeste 0 -- -- 62
2018-04-04 07:00:00 8.5 18 Sudoeste 29 Sudoeste 0 -- -- 60
2018-04-04 06:00:00 9.5 14 Oeste 30 Sudoeste 0 -- -- 56
2018-04-04 05:00:00 10.3 17 Sudoeste 39 Oeste 0 -- -- 57
2018-04-04 04:00:00 11 13 Sudoeste 53 Sudoeste 0 -- -- 56
2018-04-04 03:00:00 12 21 Sudoeste 40 Oeste 0 -- -- 51
2018-04-04 02:00:00 11.9 13 Sudoeste 45 Sudoeste 0 -- -- 54
2018-04-04 01:00:00 12.8 19 Sudoeste 39 Oeste 0 -- -- 48
2018-04-04 00:00:00 13.9 27 Oeste 53 Sudoeste 0 -- -- 45
2018-04-03 23:00:00 14.1 19 Sudoeste 57 Sudoeste 0 -- -- 41
2018-04-03 22:00:00 14.9 24 Sudoeste 49 Sudoeste 0 -- -- 39
2018-04-03 21:00:00 14.6 17 Sudoeste 45 Sudoeste 0 -- -- 42
2018-04-03 20:00:00 15.5 17 Sur 42 Sudoeste 0 -- -- 40
2018-04-03 19:00:00 15.9 24 Sur 44 Sur 0 -- -- 41
2018-04-03 18:00:00 15.8 21 Sur 48 Sur 0 -- -- 39
2018-04-03 17:00:00 15.6 24 Sur 40 Sudoeste 0 -- -- 44
2018-04-03 16:00:00 15.2 19 Sudeste 40 Sudeste 0 -- -- 52
2018-04-03 15:00:00 14.4 17 Sur 37 Sur 0 -- -- 57
2018-04-03 14:00:00 13.4 23 Sudeste 36 Sur 0 -- -- 62
2018-04-03 13:00:00 12.7 17 Sur 33 Sudeste 0 -- -- 65
2018-04-03 12:00:00 12.5 17 Sur 36 Sudeste 0.2 -- -- 66
2018-04-03 11:00:00 12.8 17 Sur 31 Sur 0 -- -- 66
2018-04-03 10:00:00 9.9 20 Sur 30 Sudoeste 0 -- -- 79
2018-04-03 09:00:00 8.2 22 Sur 37 Sur 0 -- -- 83
2018-04-03 08:00:00 7.8 23 Sur 39 Sur 0 -- -- 82
2018-04-03 07:00:00 7.2 31 Sur 45 Sur 0.8 -- -- 81
2018-04-03 06:00:00 9 26 Sudoeste 43 Sur 0.6 -- -- 64
2018-04-03 05:00:00 9.8 26 Sur 37 Sur 0 -- -- 54
2018-04-03 04:00:00 9.6 25 Sur 35 Sur 0 -- -- 62
2018-04-03 03:00:00 10 24 Sur 37 Sur 0 -- -- 57
2018-04-03 02:00:00 10 28 Sur 36 Sur 0 -- -- 55
2018-04-03 01:00:00 10.4 24 Sur 38 Sur 0 -- -- 53
2018-04-03 00:00:00 10.3 28 Sur 36 Sur 0 -- -- 53
2018-04-02 23:00:00 10.6 27 Sur 37 Sur 0 -- -- 52
2018-04-02 22:00:00 11.2 28 Sur 38 Sur 0 -- -- 51
2018-04-02 21:00:00 12.1 27 Sur 43 Sur 0 -- -- 47
2018-04-02 20:00:00 13.3 29 Sur 37 Sur 0 -- -- 43
2018-04-02 19:00:00 15.3 21 Sur 35 Sur 0 -- -- 35
2018-04-02 18:00:00 14.8 22 Sur 37 Sudoeste 0 -- -- 36
2018-04-02 17:00:00 13.4 29 Sur 61 Sur 0 -- -- 39
2018-04-02 16:00:00 14.4 38 Sur 54 Sur 0 -- -- 29
2018-04-02 15:00:00 15.3 33 Sur 55 Sur 0 -- -- 28
2018-04-02 14:00:00 14.6 30 Sudoeste 52 Sur 0 -- -- 34
2018-04-02 13:00:00 13.4 29 Sur 46 Sur 0 -- -- 35
2018-04-02 12:00:00 12.3 33 Sur 44 Sur 0 -- -- 43
2018-04-02 11:00:00 11.3 28 Sur 38 Sur 0 -- -- 44
2018-04-02 10:00:00 9.9 26 Sur 35 Sur 0 -- -- 52
2018-04-02 09:00:00 8.6 19 Sur 28 Sur 0 -- -- 57
2018-04-02 08:00:00 7.7 14 Sur 25 Sur 0 -- -- 62
2018-04-02 07:00:00 8.5 20 Sur 32 Sudeste 0 -- -- 63
2018-04-02 06:00:00 9.5 22 Sur 35 Sur 0 -- -- 59
2018-04-02 05:00:00 9.2 21 Sur 32 Sudeste 0 -- -- 61
2018-04-02 04:00:00 8.7 20 Sur 41 Sur 0 -- -- 65
2018-04-02 03:00:00 9.5 29 Sur 43 Sur 0 -- -- 61
2018-04-02 02:00:00 9.8 27 Sur 35 Sur 0 -- -- 62
2018-04-02 01:00:00 9.8 20 Sur 30 Sur 0 -- -- 64
2018-04-02 00:00:00 9.3 11 Sudeste 26 Sur 0 -- -- 68
2018-04-01 23:00:00 10.5 19 Sur 31 Sur 0 -- -- 64
2018-04-01 22:00:00 11.3 18 Sur 27 Sur 0 -- -- 61
2018-04-01 21:00:00 11.3 15 Sur 27 Sudeste 0 -- -- 62
2018-04-01 20:00:00 11.7 17 Este 25 Sur 0 -- -- 62
2018-04-01 19:00:00 13.4 11 Sur 24 Sudoeste 0 -- -- 55
2018-04-01 18:00:00 14.5 14 Sur 24 Sur 0 -- -- 52
2018-04-01 17:00:00 15.4 15 Sur 26 Sur 0 -- -- 48
2018-04-01 16:00:00 15.1 12 Sudeste 28 Sudeste 0 -- -- 49
2018-04-01 15:00:00 14.5 10 Este 20 Nordeste 0 -- -- 52
2018-04-01 14:00:00 12.9 8 Nordeste 17 Nordeste 0 -- -- 51
2018-04-01 13:00:00 11 5 Nordeste 11 Nordeste 0 -- -- 55
2018-04-01 12:00:00 9 5 Este 10 Este 0 -- -- 65
2018-04-01 11:00:00 6.4 4 Nordeste 8 Este 0 -- -- 74
2018-04-01 10:00:00 2.7 0 Calma 7 Este 0 -- -- 84
2018-04-01 09:00:00 0.5 4 Noroeste 7 Noroeste 0 -- -- 87
2018-04-01 08:00:00 -0.3 3 Noroeste 6 Noroeste 0 -- -- 89
2018-04-01 07:00:00 -0.4 4 Oeste 6 Noroeste 0 -- -- 89
2018-04-01 06:00:00 0 5 Oeste 6 Oeste 0 -- -- 87
2018-04-01 05:00:00 1.6 0 Calma 6 Sudoeste 0 -- -- 79
2018-04-01 04:00:00 2.2 0 Calma 6 Noroeste 0 -- -- 78
2018-04-01 03:00:00 2.4 5 Oeste 10 Norte 0 -- -- 77
2018-04-01 02:00:00 3.3 2 Norte 16 Sudoeste 0 -- -- 73
2018-04-01 01:00:00 3 12 Nordeste 39 Noroeste 0 -- -- 77
2018-04-01 00:00:00 3.9 13 Norte 25 Noroeste 0.2 -- -- 73
2018-03-31 23:00:00 3.8 9 Noroeste 24 Noroeste 0 -- -- 78
2018-03-31 22:00:00 3.8 8 Oeste 23 Oeste 0 -- -- 79
2018-03-31 21:00:00 3.3 9 Noroeste 35 Norte 0 -- -- 81
2018-03-31 20:00:00 4.3 22 Norte 41 Noroeste 0 -- -- 79
2018-03-31 19:00:00 5.3 28 Noroeste 59 Noroeste 0 -- -- 81
2018-03-31 18:00:00 4.1 8 Noroeste 38 Norte 0.2 -- -- 89
2018-03-31 17:00:00 4.5 20 Norte 55 Noroeste 0.2 -- -- 84
2018-03-31 16:00:00 5.5 24 Noroeste 45 Noroeste 0.8 -- -- 86
2018-03-31 15:00:00 3.4 32 Noroeste 45 Noroeste 0.8 -- -- 85
2018-03-31 14:00:00 4.4 24 Noroeste 48 Noroeste 0 -- -- 86
2018-03-31 13:00:00 3.7 30 Noroeste 55 Noroeste 0.6 -- -- 88
2018-03-31 12:00:00 4 46 Noroeste 65 Noroeste 0 -- -- 81
2018-03-31 11:00:00 4.2 52 Noroeste 76 Oeste 0 -- -- 74
2018-03-31 10:00:00 2.3 46 Noroeste 73 Noroeste 0.8 -- -- 88
2018-03-31 09:00:00 2.3 45 Oeste 67 Oeste 0 -- -- 87
2018-03-31 08:00:00 3 38 Oeste 59 Oeste 0.2 -- -- 83
2018-03-31 07:00:00 1.7 3 Sur 22 Noroeste 0.6 -- -- 90
2018-03-31 06:00:00 2.4 21 Noroeste 30 Noroeste 0 -- -- 87
2018-03-31 05:00:00 1.7 4 Este 9 Sudeste 0 -- -- 92
2018-03-31 04:00:00 1.4 2 Oeste 17 Sudeste 0.2 -- -- 92
2018-03-31 03:00:00 1.9 14 Oeste 20 Noroeste 2.8 -- -- 88
2018-03-31 02:00:00 3.8 13 Sur 30 Sudoeste 0.8 -- -- 83
2018-03-31 01:00:00 5.9 9 Sudeste 33 Oeste 0 -- -- 65
2018-03-31 00:00:00 7 12 Sudoeste 21 Sur 0 -- -- 43
2018-03-30 23:00:00 7 11 Sur 18 Sudoeste 0 -- -- 40
2018-03-30 22:00:00 7.6 11 Sur 21 Sur 0 -- -- 43
2018-03-30 21:00:00 6.8 11 Sudoeste 31 Sudoeste 0 -- -- 43
2018-03-30 20:00:00 9 15 Sudoeste 27 Sudoeste 0 -- -- 38
2018-03-30 19:00:00 11 15 Sudoeste 29 Sudoeste 0 -- -- 35
2018-03-30 18:00:00 11 9 Sudeste 23 Este 0 -- -- 33
2018-03-30 17:00:00 10.1 9 Este 22 Oeste 0 -- -- 38
2018-03-30 16:00:00 10.6 10 Noroeste 23 Oeste 0 -- -- 34
2018-03-30 15:00:00 9.8 7 Noroeste 22 Noroeste 0 -- -- 41
2018-03-30 14:00:00 8.1 13 Oeste 24 Noroeste 0 -- -- 45
2018-03-30 13:00:00 8.3 15 Oeste 28 Oeste 0 -- -- 47
2018-03-30 12:00:00 7.1 9 Noroeste 24 Oeste 0 -- -- 54
2018-03-30 11:00:00 6 17 Noroeste 25 Noroeste 0 -- -- 61
2018-03-30 10:00:00 5.5 9 Norte 21 Norte 0 -- -- 67
2018-03-30 09:00:00 3.7 2 Oeste 21 Oeste 0 -- -- 91
2018-03-30 08:00:00 4 13 Oeste 56 Noroeste 0.4 -- -- 82
2018-03-30 07:00:00 6.3 20 Sur 30 Sur 0 -- -- 67
2018-03-30 06:00:00 6.5 21 Sur 32 Sur 0 -- -- 68
2018-03-30 05:00:00 7.5 22 Sur 37 Sur 0 -- -- 61
2018-03-30 04:00:00 7.4 28 Sur 38 Sur 0 -- -- 65
2018-03-30 03:00:00 8.1 26 Sur 37 Sudeste 0 -- -- 72
2018-03-30 02:00:00 7.4 19 Sur 28 Sur 0 -- -- 76
2018-03-30 01:00:00 8.6 14 Sur 30 Sur 0 -- -- 65
2018-03-30 00:00:00 9.6 13 Sur 18 Sur 0 -- -- 50
2018-03-29 23:00:00 9.2 14 Sur 19 Sur 0 -- -- 52
2018-03-29 22:00:00 9.4 14 Sur 18 Sur 0 -- -- 48
2018-03-29 21:00:00 8.9 14 Sudoeste 18 Sudoeste 0 -- -- 52
2018-03-29 20:00:00 12 7 Sudoeste 26 Oeste 0 -- -- 45
2018-03-29 19:00:00 13.3 15 Oeste 32 Oeste 0 -- -- 35
2018-03-29 18:00:00 14.1 13 Oeste 34 Oeste 0 -- -- 34
2018-03-29 17:00:00 12.7 10 Oeste 21 Oeste 0 -- -- 38
2018-03-29 16:00:00 13.1 18 Oeste 31 Oeste 0 -- -- 41
2018-03-29 15:00:00 13.1 23 Oeste 32 Oeste 0 -- -- 41
2018-03-29 14:00:00 11.8 17 Oeste 29 Oeste 0 -- -- 47
2018-03-29 13:00:00 10.6 13 Noroeste 19 Noroeste 0 -- -- 55
2018-03-29 12:00:00 9.8 8 Norte 17 Nordeste 0 -- -- 65
2018-03-29 11:00:00 9 6 Sudeste 9 Sudeste 0 -- -- 69
2018-03-29 10:00:00 7 2 Noroeste 5 Sur 0 -- -- 79
2018-03-29 09:00:00 5.7 3 Sur 11 Sudoeste 0 -- -- 82
2018-03-29 08:00:00 4.6 3 Sudoeste 9 Noroeste 0 -- -- 84
2018-03-29 07:00:00 4.7 4 Sudeste 7 Oeste 0 -- -- 82
2018-03-29 06:00:00 5 4 Sudoeste 7 Sudoeste 0 -- -- 78
2018-03-29 05:00:00 6.2 0 Calma 10 Sudeste 0 -- -- 76
2018-03-29 04:00:00 6 6 Oeste 24 Noroeste 0 -- -- 78
2018-03-29 03:00:00 7.6 16 Noroeste 29 Noroeste 0 -- -- 74
2018-03-29 02:00:00 8.1 18 Noroeste 27 Norte 0 -- -- 77
2018-03-29 01:00:00 9 18 Noroeste 28 Noroeste 0 -- -- 71
2018-03-29 00:00:00 9.2 9 Noroeste 20 Norte 0 -- -- 79
2018-03-28 23:00:00 9.9 14 Norte 25 Norte 0 -- -- 74
2018-03-28 22:00:00 11.4 14 Noroeste 20 Noroeste 0 -- -- 63
2018-03-28 21:00:00 12.1 6 Sudoeste 12 Sudoeste 0 -- -- 52
2018-03-28 20:00:00 16.8 4 Noroeste 17 Norte 0 -- -- 41
2018-03-28 19:00:00 17.9 11 Norte 22 Noroeste 0 -- -- 36
2018-03-28 18:00:00 18.1 14 Norte 22 Norte 0 -- -- 36
2018-03-28 17:00:00 18.2 7 Nordeste 18 Norte 0 -- -- 36
2018-03-28 16:00:00 17.6 13 Norte 29 Norte 0 -- -- 37
2018-03-28 15:00:00 17.6 14 Norte 27 Norte 0 -- -- 36
2018-03-28 14:00:00 16.9 14 Norte 23 Norte 0 -- -- 38
2018-03-28 13:00:00 16.2 13 Nordeste 21 Nordeste 0 -- -- 42
2018-03-28 12:00:00 15.1 13 Nordeste 21 Nordeste 0 -- -- 42
2018-03-28 11:00:00 11.7 4 Sudeste 8 Sudeste 0 -- -- 66
2018-03-28 10:00:00 8.6 4 Este 9 Sudeste 0 -- -- 78
2018-03-28 09:00:00 5 2 Norte 7 Noroeste 0 -- -- 86
2018-03-28 08:00:00 4.6 2 Este 6 Oeste 0 -- -- 89
2018-03-28 07:00:00 4.9 0 Calma 10 Norte 0 -- -- 88
2018-03-28 06:00:00 7.7 0 Calma 6 Sur 0 -- -- 74
2018-03-28 05:00:00 7.8 3 Oeste 10 Noroeste 0 -- -- 75
2018-03-28 04:00:00 8.6 8 Noroeste 18 Oeste 0 -- -- 75
2018-03-28 03:00:00 8.7 12 Noroeste 26 Oeste 0 -- -- 77
2018-03-28 02:00:00 8.8 19 Oeste 26 Noroeste 0 -- -- 79
2018-03-28 01:00:00 8.4 13 Oeste 18 Noroeste 0 -- -- 83
2018-03-28 00:00:00 10 10 Norte 38 Noroeste 0 -- -- 76
2018-03-27 23:00:00 10.2 25 Noroeste 37 Norte 0 -- -- 76
2018-03-27 22:00:00 10.3 19 Noroeste 25 Noroeste 0 -- -- 80
2018-03-27 21:00:00 9.9 9 Noroeste 15 Norte 0 -- -- 83
2018-03-27 20:00:00 10.2 11 Norte 21 Norte 0 -- -- 81
2018-03-27 19:00:00 10.7 11 Norte 24 Norte 0 -- -- 77
2018-03-27 18:00:00 11 18 Norte 36 Norte 0 -- -- 75
2018-03-27 17:00:00 11.7 27 Norte 40 Noroeste 0 -- -- 71
2018-03-27 16:00:00 12.9 31 Norte 44 Norte 0 -- -- 68
2018-03-27 15:00:00 14.1 33 Noroeste 49 Noroeste 0 -- -- 64
2018-03-27 14:00:00 13.2 35 Norte 54 Noroeste 0 -- -- 64
2018-03-27 13:00:00 12.3 37 Noroeste 54 Noroeste 0 -- -- 66
2018-03-27 12:00:00 11.5 36 Noroeste 51 Norte 0 -- -- 69
2018-03-27 11:00:00 10.5 33 Noroeste 44 Noroeste 0 -- -- 74
2018-03-27 10:00:00 9.1 23 Noroeste 42 Noroeste 0 -- -- 81
2018-03-27 09:00:00 8.1 28 Noroeste 39 Noroeste 0 -- -- 82
2018-03-27 08:00:00 7.2 22 Noroeste 32 Noroeste 0 -- -- 83
2018-03-27 07:00:00 6.5 25 Noroeste 35 Noroeste 0 -- -- 85
2018-03-27 06:00:00 6 25 Noroeste 38 Oeste 0 -- -- 83
2018-03-27 05:00:00 6.2 22 Noroeste 30 Oeste 0 -- -- 76
2018-03-27 04:00:00 5.5 15 Noroeste 30 Norte 0 -- -- 75
2018-03-27 03:00:00 5 15 Oeste 26 Oeste 0 -- -- 76
2018-03-27 02:00:00 4.6 17 Noroeste 33 Noroeste 0 -- -- 77
2018-03-27 01:00:00 4.6 22 Noroeste 37 Noroeste 0 -- -- 77
2018-03-27 00:00:00 4.7 25 Noroeste 47 Noroeste 0 -- -- 77
2018-03-26 23:00:00 4.7 24 Noroeste 41 Noroeste 0 -- -- 76
2018-03-26 22:00:00 5 29 Noroeste 37 Noroeste 0 -- -- 73
2018-03-26 21:00:00 5.2 25 Noroeste 39 Noroeste 0 -- -- 71
2018-03-26 20:00:00 5.8 30 Noroeste 43 Noroeste 0 -- -- 67
2018-03-26 19:00:00 7.3 29 Norte 48 Noroeste 0 -- -- 61
2018-03-26 18:00:00 7.8 36 Noroeste 52 Noroeste 0 -- -- 58
2018-03-26 17:00:00 8 23 Norte 48 Noroeste 0 -- -- 51
2018-03-26 16:00:00 7.6 22 Norte 49 Noroeste 0 -- -- 57
2018-03-26 15:00:00 7.6 34 Noroeste 54 Noroeste 0 -- -- 63
2018-03-26 14:00:00 7.7 36 Noroeste 55 Noroeste 0 -- -- 68
2018-03-26 13:00:00 8 37 Noroeste 59 Noroeste 0 -- -- 70
2018-03-26 12:00:00 8.1 40 Noroeste 56 Noroeste 0 -- -- 68
2018-03-26 11:00:00 7.8 32 Noroeste 51 Noroeste 0 -- -- 75
2018-03-26 10:00:00 6.8 34 Noroeste 54 Noroeste 0 -- -- 76
2018-03-26 09:00:00 5.6 32 Noroeste 44 Noroeste 0 -- -- 79
2018-03-26 08:00:00 5.7 28 Noroeste 40 Noroeste 0 -- -- 78
2018-03-26 07:00:00 5.5 29 Noroeste 42 Noroeste 0 -- -- 79
2018-03-26 06:00:00 5.4 23 Noroeste 39 Norte 0 -- -- 81
2018-03-26 05:00:00 5.4 19 Noroeste 32 Noroeste 0 -- -- 83
2018-03-26 04:00:00 4.6 18 Noroeste 34 Noroeste 0 -- -- 85
2018-03-26 03:00:00 5.1 20 Noroeste 45 Noroeste 0 -- -- 81
2018-03-26 02:00:00 4.7 29 Noroeste 39 Noroeste 0 -- -- 82
2018-03-26 01:00:00 5.1 22 Noroeste 31 Noroeste 0 -- -- 80
2018-03-26 00:00:00 4.5 14 Noroeste 19 Noroeste 0 -- -- 83
2018-03-25 23:00:00 4.5 8 Noroeste 12 Noroeste 0 -- -- 83
2018-03-25 22:00:00 4.4 7 Noroeste 18 Noroeste 0 -- -- 82
2018-03-25 21:00:00 5.3 17 Noroeste 27 Noroeste 0 -- -- 78
2018-03-25 20:00:00 6.1 19 Noroeste 32 Noroeste 0 -- -- 77
2018-03-25 19:00:00 6.5 26 Noroeste 35 Noroeste 0 -- -- 77
2018-03-25 18:00:00 8 23 Noroeste 41 Noroeste 0 -- -- 69
2018-03-25 17:00:00 8.8 26 Noroeste 38 Noroeste 0 -- -- 63
2018-03-25 16:00:00 9 29 Noroeste 42 Noroeste 0 -- -- 64
2018-03-25 15:00:00 8.3 24 Noroeste 35 Noroeste 0 -- -- 63
2018-03-25 14:00:00 8 21 Noroeste 29 Noroeste 0 -- -- 64
2018-03-25 13:00:00 7.3 13 Norte 27 Noroeste 0 -- -- 67
2018-03-25 12:00:00 7.1 13 Norte 24 Norte 0 -- -- 71
2018-03-25 11:00:00 5.5 12 Norte 19 Norte 0 -- -- 77
2018-03-25 10:00:00 4.2 6 Este 9 Este 0 -- -- 89
2018-03-25 09:00:00 2.2 3 Norte 8 Oeste 0 -- -- 93
2018-03-25 08:00:00 2.3 3 Sur 6 Este 0 -- -- 92
2018-03-25 07:00:00 2.7 0 Calma 6 Sudoeste 0 -- -- 91
2018-03-25 06:00:00 2.6 3 Norte 5 Noroeste 0 -- -- 92
2018-03-25 05:00:00 3.2 2 Noroeste 5 Este 0 -- -- 92
2018-03-25 03:00:00 3.4 2 Sudeste 6 Nordeste 0 -- -- 93
2018-03-25 01:00:00 3.2 2 Nordeste 8 Noroeste 0 -- -- 89
2018-03-25 00:00:00 3.8 8 Noroeste 24 Noroeste 0 -- -- 85
2018-03-24 23:00:00 4.1 10 Noroeste 26 Noroeste 0 -- -- 85
2018-03-24 22:00:00 4.5 13 Noroeste 18 Noroeste 0 -- -- 86
2018-03-24 21:00:00 4.8 9 Norte 24 Noroeste 0 -- -- 88
2018-03-24 20:00:00 5.1 11 Noroeste 17 Norte 0 -- -- 84
2018-03-24 19:00:00 6.1 13 Norte 27 Norte 0 -- -- 78
2018-03-24 18:00:00 7.5 13 Norte 27 Norte 0 -- -- 67
2018-03-24 17:00:00 7.5 15 Norte 27 Noroeste 0 -- -- 68
2018-03-24 16:00:00 7.7 17 Norte 32 Noroeste 0 -- -- 67
2018-03-24 15:00:00 7.5 21 Norte 33 Noroeste 0 -- -- 65
2018-03-24 14:00:00 6.7 25 Noroeste 37 Noroeste 0.2 -- -- 66
2018-03-24 13:00:00 6 26 Noroeste 36 Noroeste 0 -- -- 67
2018-03-24 12:00:00 5.5 18 Noroeste 31 Norte 0 -- -- 68
2018-03-24 11:00:00 5.1 18 Noroeste 28 Noroeste 0 -- -- 70
2018-03-24 10:00:00 4 15 Norte 23 Norte 0 -- -- 78
2018-03-24 09:00:00 3.3 17 Noroeste 29 Noroeste 0 -- -- 80
2018-03-24 08:00:00 2.8 21 Norte 29 Noroeste 0 -- -- 80
2018-03-24 07:00:00 2.6 16 Noroeste 30 Noroeste 0 -- -- 85
2018-03-24 06:00:00 2.3 17 Norte 32 Noroeste 0 -- -- 90
2018-03-24 05:00:00 1.9 17 Noroeste 37 Noroeste 1 -- -- 93
2018-03-24 04:00:00 2.6 17 Noroeste 43 Noroeste 2 -- -- 92
2018-03-24 03:00:00 3.4 31 Noroeste 45 Norte 2.8 -- -- 90
2018-03-24 02:00:00 5.9 13 Noroeste 23 Noroeste 2.2 -- -- 89
2018-03-24 01:00:00 7.4 6 Nordeste 22 Sur 3.6 -- -- 91
2018-03-24 00:00:00 8 18 Sur 26 Sur 1.6 -- -- 87
2018-03-23 23:00:00 8.6 19 Sur 28 Sur 0.2 -- -- 80
2018-03-23 22:00:00 9.2 15 Sur 27 Sur 0 -- -- 75
2018-03-23 21:00:00 9.3 8 Sur 13 Sur 0 -- -- 73
2018-03-23 20:00:00 9.4 8 Sudoeste 13 Sur 0 -- -- 74
2018-03-23 19:00:00 10.4 3 Sudeste 5 Sudeste 0 -- -- 69
2018-03-23 18:00:00 11 0 Calma 13 Noroeste 0 -- -- 66
2018-03-23 17:00:00 11.2 9 Noroeste 28 Oeste 0 -- -- 66
2018-03-23 16:00:00 12 23 Noroeste 31 Noroeste 0 -- -- 60
2018-03-23 15:00:00 12.3 20 Noroeste 34 Oeste 0 -- -- 60
2018-03-23 14:00:00 12.1 23 Noroeste 40 Oeste 0 -- -- 60
2018-03-23 13:00:00 11.2 29 Noroeste 36 Noroeste 0 -- -- 60
2018-03-23 12:00:00 11 21 Noroeste 34 Noroeste 0 -- -- 56
2018-03-23 11:00:00 8.6 22 Noroeste 38 Noroeste 0 -- -- 53
2018-03-23 10:00:00 7.7 27 Noroeste 40 Noroeste 0 -- -- 48
2018-03-23 09:00:00 6.7 27 Noroeste 36 Noroeste 0 -- -- 47
2018-03-23 08:00:00 5.9 26 Oeste 37 Oeste 0 -- -- 45
2018-03-23 07:00:00 5.1 29 Noroeste 38 Noroeste 0 -- -- 39
2018-03-23 06:00:00 -0.5 4 Nordeste 9 Este 0 -- -- 45
2018-03-23 05:00:00 -0.7 2 Norte 7 Sudoeste 0 -- -- 49
2018-03-23 04:00:00 -0.1 5 Sur 8 Sudoeste 0 -- -- 48
2018-03-23 03:00:00 -0.6 4 Sudoeste 9 Sudoeste 0 -- -- 56
2018-03-23 02:00:00 -0.4 3 Sudoeste 4 Sudoeste 0 -- -- 58
2018-03-23 01:00:00 -0.2 4 Sudoeste 8 Oeste 0 -- -- 59
2018-03-23 00:00:00 -0.2 3 Sudoeste 8 Sudoeste 0 -- -- 62